sensor_id;sensor_type;location;lat;lon;timestamp;P1;durP1;ratioP1;P2;durP2;ratioP2
2408;SDS011;8463;48.094;7.970;2023-07-28T00:00:22;2.20;;;2.00;;
2408;SDS011;8463;48.094;7.970;2023-07-28T00:02:47;5.40;;;2.97;;
2408;SDS011;8463;48.094;7.970;2023-07-28T00:05:14;2.57;;;2.37;;
2408;SDS011;8463;48.094;7.970;2023-07-28T00:07:39;2.83;;;2.50;;
2408;SDS011;8463;48.094;7.970;2023-07-28T00:10:05;2.60;;;2.30;;
2408;SDS011;8463;48.094;7.970;2023-07-28T00:12:31;5.40;;;2.87;;
2408;SDS011;8463;48.094;7.970;2023-07-28T00:14:56;2.73;;;2.33;;
2408;SDS011;8463;48.094;7.970;2023-07-28T00:17:24;3.63;;;2.23;;
2408;SDS011;8463;48.094;7.970;2023-07-28T00:19:49;2.30;;;2.10;;
2408;SDS011;8463;48.094;7.970;2023-07-28T00:22:15;2.93;;;2.63;;
2408;SDS011;8463;48.094;7.970;2023-07-28T00:24:40;2.97;;;2.63;;
2408;SDS011;8463;48.094;7.970;2023-07-28T00:27:09;3.33;;;2.50;;
2408;SDS011;8463;48.094;7.970;2023-07-28T00:29:34;3.07;;;2.63;;
2408;SDS011;8463;48.094;7.970;2023-07-28T00:32:00;2.57;;;2.37;;
2408;SDS011;8463;48.094;7.970;2023-07-28T00:34:25;2.87;;;2.63;;
2408;SDS011;8463;48.094;7.970;2023-07-28T00:36:52;3.07;;;2.50;;
2408;SDS011;8463;48.094;7.970;2023-07-28T00:39:20;2.43;;;2.23;;
2408;SDS011;8463;48.094;7.970;2023-07-28T00:41:46;3.80;;;3.33;;
2408;SDS011;8463;48.094;7.970;2023-07-28T00:44:11;2.60;;;2.40;;
2408;SDS011;8463;48.094;7.970;2023-07-28T00:46:39;3.60;;;3.30;;
2408;SDS011;8463;48.094;7.970;2023-07-28T00:49:11;4.57;;;2.60;;
2408;SDS011;8463;48.094;7.970;2023-07-28T00:51:37;4.80;;;2.90;;
2408;SDS011;8463;48.094;7.970;2023-07-28T00:54:06;3.00;;;2.70;;
2408;SDS011;8463;48.094;7.970;2023-07-28T00:56:33;2.60;;;2.40;;
2408;SDS011;8463;48.094;7.970;2023-07-28T00:58:58;3.97;;;2.90;;
2408;SDS011;8463;48.094;7.970;2023-07-28T01:01:24;3.07;;;2.63;;
2408;SDS011;8463;48.094;7.970;2023-07-28T01:03:50;3.73;;;2.80;;
2408;SDS011;8463;48.094;7.970;2023-07-28T01:08:58;2.40;;;2.20;;
2408;SDS011;8463;48.094;7.970;2023-07-28T01:11:33;2.50;;;2.30;;
2408;SDS011;8463;48.094;7.970;2023-07-28T01:13:58;2.80;;;2.43;;
2408;SDS011;8463;48.094;7.970;2023-07-28T01:16:24;3.13;;;2.00;;
2408;SDS011;8463;48.094;7.970;2023-07-28T01:18:54;2.57;;;2.27;;
2408;SDS011;8463;48.094;7.970;2023-07-28T01:21:28;3.33;;;3.00;;
2408;SDS011;8463;48.094;7.970;2023-07-28T01:24:01;2.60;;;2.40;;
2408;SDS011;8463;48.094;7.970;2023-07-28T01:26:45;3.27;;;2.83;;
2408;SDS011;8463;48.094;7.970;2023-07-28T01:29:14;3.77;;;2.77;;
2408;SDS011;8463;48.094;7.970;2023-07-28T01:31:41;3.60;;;2.77;;
2408;SDS011;8463;48.094;7.970;2023-07-28T01:34:06;2.60;;;2.30;;
2408;SDS011;8463;48.094;7.970;2023-07-28T01:36:32;3.30;;;2.60;;
2408;SDS011;8463;48.094;7.970;2023-07-28T01:38:57;3.07;;;2.60;;
2408;SDS011;8463;48.094;7.970;2023-07-28T01:41:23;3.77;;;2.60;;
2408;SDS011;8463;48.094;7.970;2023-07-28T01:43:49;3.27;;;2.97;;
2408;SDS011;8463;48.094;7.970;2023-07-28T01:46:14;3.07;;;2.77;;
2408;SDS011;8463;48.094;7.970;2023-07-28T01:48:40;2.60;;;2.40;;
2408;SDS011;8463;48.094;7.970;2023-07-28T01:51:05;3.93;;;2.80;;
2408;SDS011;8463;48.094;7.970;2023-07-28T01:53:31;3.00;;;2.57;;
2408;SDS011;8463;48.094;7.970;2023-07-28T01:55:57;2.53;;;2.33;;
2408;SDS011;8463;48.094;7.970;2023-07-28T01:58:22;2.87;;;2.63;;
2408;SDS011;8463;48.094;7.970;2023-07-28T02:00:48;2.67;;;2.47;;
2408;SDS011;8463;48.094;7.970;2023-07-28T02:03:13;2.30;;;2.10;;
2408;SDS011;8463;48.094;7.970;2023-07-28T02:05:39;3.10;;;2.80;;
2408;SDS011;8463;48.094;7.970;2023-07-28T02:08:05;6.10;;;3.10;;
2408;SDS011;8463;48.094;7.970;2023-07-28T02:10:30;3.90;;;3.40;;
2408;SDS011;8463;48.094;7.970;2023-07-28T02:13:02;3.57;;;2.80;;
2408;SDS011;8463;48.094;7.970;2023-07-28T02:15:28;2.53;;;2.33;;
2408;SDS011;8463;48.094;7.970;2023-07-28T02:17:57;3.07;;;2.80;;
2408;SDS011;8463;48.094;7.970;2023-07-28T02:20:24;2.37;;;2.17;;
2408;SDS011;8463;48.094;7.970;2023-07-28T02:22:50;2.93;;;2.73;;
2408;SDS011;8463;48.094;7.970;2023-07-28T02:25:16;3.83;;;2.40;;
2408;SDS011;8463;48.094;7.970;2023-07-28T02:27:41;3.33;;;3.03;;
2408;SDS011;8463;48.094;7.970;2023-07-28T02:30:07;3.17;;;2.80;;
2408;SDS011;8463;48.094;7.970;2023-07-28T02:32:33;3.27;;;2.97;;
2408;SDS011;8463;48.094;7.970;2023-07-28T02:34:59;3.90;;;3.60;;
2408;SDS011;8463;48.094;7.970;2023-07-28T02:37:27;4.67;;;3.00;;
2408;SDS011;8463;48.094;7.970;2023-07-28T02:39:53;3.13;;;2.83;;
2408;SDS011;8463;48.094;7.970;2023-07-28T02:42:18;4.50;;;3.10;;
2408;SDS011;8463;48.094;7.970;2023-07-28T02:44:44;3.70;;;2.80;;
2408;SDS011;8463;48.094;7.970;2023-07-28T02:47:10;2.67;;;2.40;;
2408;SDS011;8463;48.094;7.970;2023-07-28T02:49:35;3.40;;;3.10;;
2408;SDS011;8463;48.094;7.970;2023-07-28T02:52:01;2.67;;;2.40;;
2408;SDS011;8463;48.094;7.970;2023-07-28T02:54:28;3.37;;;2.63;;
2408;SDS011;8463;48.094;7.970;2023-07-28T02:56:53;3.23;;;2.70;;
2408;SDS011;8463;48.094;7.970;2023-07-28T02:59:21;3.40;;;2.90;;
2408;SDS011;8463;48.094;7.970;2023-07-28T03:01:48;2.73;;;2.53;;
2408;SDS011;8463;48.094;7.970;2023-07-28T03:04:16;4.43;;;3.00;;
2408;SDS011;8463;48.094;7.970;2023-07-28T03:06:43;2.60;;;2.40;;
2408;SDS011;8463;48.094;7.970;2023-07-28T03:09:09;3.37;;;2.80;;
2408;SDS011;8463;48.094;7.970;2023-07-28T03:11:35;3.70;;;2.70;;
2408;SDS011;8463;48.094;7.970;2023-07-28T03:14:04;2.97;;;2.50;;
2408;SDS011;8463;48.094;7.970;2023-07-28T03:16:29;4.53;;;2.87;;
2408;SDS011;8463;48.094;7.970;2023-07-28T03:18:55;3.10;;;2.80;;
2408;SDS011;8463;48.094;7.970;2023-07-28T03:21:21;2.50;;;2.30;;
2408;SDS011;8463;48.094;7.970;2023-07-28T03:23:46;2.80;;;2.53;;
2408;SDS011;8463;48.094;7.970;2023-07-28T03:26:13;2.90;;;2.70;;
2408;SDS011;8463;48.094;7.970;2023-07-28T03:28:40;2.60;;;2.40;;
2408;SDS011;8463;48.094;7.970;2023-07-28T03:31:08;5.07;;;3.40;;
2408;SDS011;8463;48.094;7.970;2023-07-28T03:33:36;2.87;;;2.63;;
2408;SDS011;8463;48.094;7.970;2023-07-28T03:36:02;2.83;;;2.63;;
2408;SDS011;8463;48.094;7.970;2023-07-28T03:38:27;2.60;;;2.40;;
2408;SDS011;8463;48.094;7.970;2023-07-28T03:40:53;3.30;;;2.53;;
2408;SDS011;8463;48.094;7.970;2023-07-28T03:43:19;2.23;;;2.10;;
2408;SDS011;8463;48.094;7.970;2023-07-28T03:45:45;4.43;;;2.90;;
2408;SDS011;8463;48.094;7.970;2023-07-28T03:48:16;2.77;;;2.50;;
2408;SDS011;8463;48.094;7.970;2023-07-28T03:50:44;2.50;;;2.30;;
2408;SDS011;8463;48.094;7.970;2023-07-28T03:53:12;3.40;;;2.50;;
2408;SDS011;8463;48.094;7.970;2023-07-28T03:55:38;2.60;;;2.40;;
2408;SDS011;8463;48.094;7.970;2023-07-28T03:58:04;3.40;;;2.57;;
2408;SDS011;8463;48.094;7.970;2023-07-28T04:00:29;3.10;;;2.80;;
2408;SDS011;8463;48.094;7.970;2023-07-28T04:02:55;3.60;;;3.10;;
2408;SDS011;8463;48.094;7.970;2023-07-28T04:05:21;3.13;;;2.87;;
2408;SDS011;8463;48.094;7.970;2023-07-28T04:07:46;2.90;;;2.47;;
2408;SDS011;8463;48.094;7.970;2023-07-28T04:10:12;5.17;;;3.07;;
2408;SDS011;8463;48.094;7.970;2023-07-28T04:12:40;3.40;;;3.10;;
2408;SDS011;8463;48.094;7.970;2023-07-28T04:15:05;3.23;;;2.93;;
2408;SDS011;8463;48.094;7.970;2023-07-28T04:17:31;4.17;;;3.20;;
2408;SDS011;8463;48.094;7.970;2023-07-28T04:19:57;4.07;;;3.47;;
2408;SDS011;8463;48.094;7.970;2023-07-28T04:22:31;3.30;;;2.93;;
2408;SDS011;8463;48.094;7.970;2023-07-28T04:24:56;5.03;;;3.20;;
2408;SDS011;8463;48.094;7.970;2023-07-28T04:27:22;3.77;;;3.40;;
2408;SDS011;8463;48.094;7.970;2023-07-28T04:29:52;2.40;;;2.20;;
2408;SDS011;8463;48.094;7.970;2023-07-28T04:32:19;2.70;;;2.50;;
2408;SDS011;8463;48.094;7.970;2023-07-28T04:34:45;4.00;;;3.00;;
2408;SDS011;8463;48.094;7.970;2023-07-28T04:37:10;3.40;;;3.17;;
2408;SDS011;8463;48.094;7.970;2023-07-28T04:39:36;2.80;;;2.60;;
2408;SDS011;8463;48.094;7.970;2023-07-28T04:42:01;3.00;;;2.50;;
2408;SDS011;8463;48.094;7.970;2023-07-28T04:44:27;3.47;;;3.17;;
2408;SDS011;8463;48.094;7.970;2023-07-28T04:46:53;2.83;;;2.47;;
2408;SDS011;8463;48.094;7.970;2023-07-28T04:49:18;3.67;;;2.87;;
2408;SDS011;8463;48.094;7.970;2023-07-28T04:51:46;3.63;;;2.43;;
2408;SDS011;8463;48.094;7.970;2023-07-28T04:54:12;3.50;;;2.60;;
2408;SDS011;8463;48.094;7.970;2023-07-28T04:56:37;3.37;;;3.07;;
2408;SDS011;8463;48.094;7.970;2023-07-28T04:59:03;2.90;;;2.60;;
2408;SDS011;8463;48.094;7.970;2023-07-28T05:01:29;2.20;;;2.00;;
2408;SDS011;8463;48.094;7.970;2023-07-28T05:03:55;2.70;;;2.50;;
2408;SDS011;8463;48.094;7.970;2023-07-28T05:06:20;3.27;;;2.60;;
2408;SDS011;8463;48.094;7.970;2023-07-28T05:08:46;2.17;;;1.97;;
2408;SDS011;8463;48.094;7.970;2023-07-28T05:11:11;2.37;;;1.90;;
2408;SDS011;8463;48.094;7.970;2023-07-28T05:13:37;2.90;;;2.47;;
2408;SDS011;8463;48.094;7.970;2023-07-28T05:16:06;2.90;;;2.40;;
2408;SDS011;8463;48.094;7.970;2023-07-28T05:18:31;7.50;;;3.13;;
2408;SDS011;8463;48.094;7.970;2023-07-28T05:21:00;3.70;;;3.00;;
2408;SDS011;8463;48.094;7.970;2023-07-28T05:23:26;4.77;;;2.90;;
2408;SDS011;8463;48.094;7.970;2023-07-28T05:25:51;3.80;;;2.30;;
2408;SDS011;8463;48.094;7.970;2023-07-28T05:28:20;4.77;;;2.43;;
2408;SDS011;8463;48.094;7.970;2023-07-28T05:30:45;3.13;;;2.33;;
2408;SDS011;8463;48.094;7.970;2023-07-28T05:33:14;2.47;;;2.27;;
2408;SDS011;8463;48.094;7.970;2023-07-28T05:35:39;2.73;;;2.30;;
2408;SDS011;8463;48.094;7.970;2023-07-28T05:38:06;3.63;;;3.10;;
2408;SDS011;8463;48.094;7.970;2023-07-28T05:40:31;4.20;;;2.97;;
2408;SDS011;8463;48.094;7.970;2023-07-28T05:42:57;6.30;;;3.10;;
2408;SDS011;8463;48.094;7.970;2023-07-28T05:45:22;3.10;;;2.77;;
2408;SDS011;8463;48.094;7.970;2023-07-28T05:47:48;1.97;;;1.87;;
2408;SDS011;8463;48.094;7.970;2023-07-28T05:50:15;4.53;;;2.20;;
2408;SDS011;8463;48.094;7.970;2023-07-28T05:52:41;3.00;;;2.70;;
2408;SDS011;8463;48.094;7.970;2023-07-28T05:55:10;4.00;;;2.20;;
2408;SDS011;8463;48.094;7.970;2023-07-28T05:57:35;2.90;;;2.00;;
2408;SDS011;8463;48.094;7.970;2023-07-28T06:00:01;5.60;;;2.27;;
2408;SDS011;8463;48.094;7.970;2023-07-28T06:02:27;2.10;;;1.90;;
2408;SDS011;8463;48.094;7.970;2023-07-28T06:04:53;1.47;;;1.37;;
2408;SDS011;8463;48.094;7.970;2023-07-28T06:07:19;2.37;;;1.70;;
2408;SDS011;8463;48.094;7.970;2023-07-28T06:09:44;2.13;;;1.47;;
2408;SDS011;8463;48.094;7.970;2023-07-28T06:12:13;2.70;;;1.87;;
2408;SDS011;8463;48.094;7.970;2023-07-28T06:14:41;2.33;;;1.67;;
2408;SDS011;8463;48.094;7.970;2023-07-28T06:17:06;2.03;;;1.83;;
2408;SDS011;8463;48.094;7.970;2023-07-28T06:19:33;2.67;;;1.50;;
2408;SDS011;8463;48.094;7.970;2023-07-28T06:21:58;1.93;;;1.73;;
2408;SDS011;8463;48.094;7.970;2023-07-28T06:24:24;1.90;;;1.80;;
2408;SDS011;8463;48.094;7.970;2023-07-28T06:26:51;2.00;;;1.80;;
2408;SDS011;8463;48.094;7.970;2023-07-28T06:29:17;2.33;;;1.90;;
2408;SDS011;8463;48.094;7.970;2023-07-28T06:31:42;2.17;;;1.97;;
2408;SDS011;8463;48.094;7.970;2023-07-28T06:34:08;1.73;;;1.63;;
2408;SDS011;8463;48.094;7.970;2023-07-28T06:36:36;2.00;;;1.80;;
2408;SDS011;8463;48.094;7.970;2023-07-28T06:39:02;2.30;;;1.90;;
2408;SDS011;8463;48.094;7.970;2023-07-28T06:41:27;2.60;;;1.53;;
2408;SDS011;8463;48.094;7.970;2023-07-28T06:43:56;2.70;;;1.73;;
2408;SDS011;8463;48.094;7.970;2023-07-28T06:46:22;2.40;;;1.50;;
2408;SDS011;8463;48.094;7.970;2023-07-28T06:48:47;2.30;;;2.10;;
2408;SDS011;8463;48.094;7.970;2023-07-28T06:51:13;1.83;;;1.63;;
2408;SDS011;8463;48.094;7.970;2023-07-28T06:53:39;2.10;;;1.90;;
2408;SDS011;8463;48.094;7.970;2023-07-28T06:56:05;2.20;;;2.00;;
2408;SDS011;8463;48.094;7.970;2023-07-28T06:58:30;1.63;;;1.53;;
2408;SDS011;8463;48.094;7.970;2023-07-28T07:00:58;1.90;;;1.60;;
2408;SDS011;8463;48.094;7.970;2023-07-28T07:03:26;1.93;;;1.73;;
2408;SDS011;8463;48.094;7.970;2023-07-28T07:05:52;2.10;;;1.90;;
2408;SDS011;8463;48.094;7.970;2023-07-28T07:08:17;1.90;;;1.80;;
2408;SDS011;8463;48.094;7.970;2023-07-28T07:10:47;2.20;;;1.93;;
2408;SDS011;8463;48.094;7.970;2023-07-28T07:13:21;2.60;;;2.40;;
2408;SDS011;8463;48.094;7.970;2023-07-28T07:15:49;2.00;;;1.90;;
2408;SDS011;8463;48.094;7.970;2023-07-28T07:18:19;2.23;;;1.67;;
2408;SDS011;8463;48.094;7.970;2023-07-28T07:20:44;2.70;;;2.03;;
2408;SDS011;8463;48.094;7.970;2023-07-28T07:23:10;2.00;;;1.90;;
2408;SDS011;8463;48.094;7.970;2023-07-28T07:25:37;2.87;;;2.27;;
2408;SDS011;8463;48.094;7.970;2023-07-28T07:28:03;3.30;;;2.17;;
2408;SDS011;8463;48.094;7.970;2023-07-28T07:30:31;4.57;;;1.93;;
2408;SDS011;8463;48.094;7.970;2023-07-28T07:32:58;3.00;;;2.07;;
2408;SDS011;8463;48.094;7.970;2023-07-28T07:35:24;2.23;;;2.03;;
2408;SDS011;8463;48.094;7.970;2023-07-28T07:37:49;2.70;;;2.50;;
2408;SDS011;8463;48.094;7.970;2023-07-28T07:40:15;2.43;;;2.13;;
2408;SDS011;8463;48.094;7.970;2023-07-28T07:42:41;2.30;;;2.10;;
2408;SDS011;8463;48.094;7.970;2023-07-28T07:45:14;2.10;;;1.90;;
2408;SDS011;8463;48.094;7.970;2023-07-28T07:47:40;2.20;;;2.00;;
2408;SDS011;8463;48.094;7.970;2023-07-28T07:50:07;2.47;;;1.90;;
2408;SDS011;8463;48.094;7.970;2023-07-28T07:52:34;2.33;;;1.70;;
2408;SDS011;8463;48.094;7.970;2023-07-28T07:55:06;2.30;;;1.77;;
2408;SDS011;8463;48.094;7.970;2023-07-28T07:57:32;2.63;;;1.93;;
2408;SDS011;8463;48.094;7.970;2023-07-28T07:59:57;2.73;;;2.30;;
2408;SDS011;8463;48.094;7.970;2023-07-28T08:02:23;2.10;;;1.90;;
2408;SDS011;8463;48.094;7.970;2023-07-28T08:04:51;1.83;;;1.70;;
2408;SDS011;8463;48.094;7.970;2023-07-28T08:07:19;3.13;;;1.90;;
2408;SDS011;8463;48.094;7.970;2023-07-28T08:09:45;2.30;;;1.70;;
2408;SDS011;8463;48.094;7.970;2023-07-28T08:12:11;3.73;;;2.40;;
2408;SDS011;8463;48.094;7.970;2023-07-28T08:14:37;2.80;;;2.17;;
2408;SDS011;8463;48.094;7.970;2023-07-28T08:17:09;4.60;;;2.27;;
2408;SDS011;8463;48.094;7.970;2023-07-28T08:19:35;2.37;;;1.63;;
2408;SDS011;8463;48.094;7.970;2023-07-28T08:22:02;2.80;;;2.10;;
2408;SDS011;8463;48.094;7.970;2023-07-28T08:24:31;2.07;;;1.70;;
2408;SDS011;8463;48.094;7.970;2023-07-28T08:26:58;1.80;;;1.40;;
2408;SDS011;8463;48.094;7.970;2023-07-28T08:29:27;1.87;;;1.70;;
2408;SDS011;8463;48.094;7.970;2023-07-28T08:31:52;4.43;;;1.73;;
2408;SDS011;8463;48.094;7.970;2023-07-28T08:34:18;2.10;;;1.80;;
2408;SDS011;8463;48.094;7.970;2023-07-28T08:36:44;2.90;;;2.13;;
2408;SDS011;8463;48.094;7.970;2023-07-28T08:39:09;1.50;;;1.40;;
2408;SDS011;8463;48.094;7.970;2023-07-28T08:41:35;2.53;;;1.97;;
2408;SDS011;8463;48.094;7.970;2023-07-28T08:44:02;4.70;;;1.60;;
2408;SDS011;8463;48.094;7.970;2023-07-28T08:46:30;4.43;;;1.90;;
2408;SDS011;8463;48.094;7.970;2023-07-28T08:48:59;3.20;;;1.70;;
2408;SDS011;8463;48.094;7.970;2023-07-28T08:51:25;2.33;;;1.60;;
2408;SDS011;8463;48.094;7.970;2023-07-28T08:53:50;3.90;;;1.83;;
2408;SDS011;8463;48.094;7.970;2023-07-28T08:56:16;2.33;;;2.13;;
2408;SDS011;8463;48.094;7.970;2023-07-28T08:58:42;1.70;;;1.60;;
2408;SDS011;8463;48.094;7.970;2023-07-28T09:01:07;1.67;;;1.57;;
2408;SDS011;8463;48.094;7.970;2023-07-28T09:03:34;2.10;;;1.50;;
2408;SDS011;8463;48.094;7.970;2023-07-28T09:06:08;3.23;;;1.67;;
2408;SDS011;8463;48.094;7.970;2023-07-28T09:08:34;1.90;;;1.80;;
2408;SDS011;8463;48.094;7.970;2023-07-28T09:11:02;3.20;;;1.90;;
2408;SDS011;8463;48.094;7.970;2023-07-28T09:13:38;1.70;;;1.60;;
2408;SDS011;8463;48.094;7.970;2023-07-28T09:16:19;2.30;;;2.03;;
2408;SDS011;8463;48.094;7.970;2023-07-28T09:18:45;2.10;;;1.77;;
2408;SDS011;8463;48.094;7.970;2023-07-28T09:21:19;4.40;;;2.10;;
2408;SDS011;8463;48.094;7.970;2023-07-28T09:23:47;2.10;;;1.90;;
2408;SDS011;8463;48.094;7.970;2023-07-28T09:26:16;2.70;;;1.87;;
2408;SDS011;8463;48.094;7.970;2023-07-28T09:28:42;1.93;;;1.83;;
2408;SDS011;8463;48.094;7.970;2023-07-28T09:31:14;1.83;;;1.73;;
2408;SDS011;8463;48.094;7.970;2023-07-28T09:33:40;2.87;;;1.80;;
2408;SDS011;8463;48.094;7.970;2023-07-28T09:36:11;2.07;;;1.67;;
2408;SDS011;8463;48.094;7.970;2023-07-28T09:38:40;5.63;;;2.93;;
2408;SDS011;8463;48.094;7.970;2023-07-28T09:41:07;2.87;;;1.83;;
2408;SDS011;8463;48.094;7.970;2023-07-28T09:43:41;1.60;;;1.50;;
2408;SDS011;8463;48.094;7.970;2023-07-28T09:46:09;2.60;;;2.00;;
2408;SDS011;8463;48.094;7.970;2023-07-28T09:48:37;2.53;;;2.10;;
2408;SDS011;8463;48.094;7.970;2023-07-28T09:51:05;3.50;;;2.00;;
2408;SDS011;8463;48.094;7.970;2023-07-28T09:53:44;2.07;;;1.83;;
2408;SDS011;8463;48.094;7.970;2023-07-28T09:56:17;2.93;;;1.80;;
2408;SDS011;8463;48.094;7.970;2023-07-28T09:58:49;2.03;;;1.83;;
2408;SDS011;8463;48.094;7.970;2023-07-28T10:01:17;3.60;;;2.50;;
2408;SDS011;8463;48.094;7.970;2023-07-28T10:03:44;2.60;;;2.40;;
2408;SDS011;8463;48.094;7.970;2023-07-28T10:06:17;2.50;;;2.10;;
2408;SDS011;8463;48.094;7.970;2023-07-28T10:08:44;2.67;;;2.23;;
2408;SDS011;8463;48.094;7.970;2023-07-28T10:11:14;2.30;;;2.10;;
2408;SDS011;8463;48.094;7.970;2023-07-28T10:13:42;2.70;;;2.00;;
2408;SDS011;8463;48.094;7.970;2023-07-28T10:16:09;2.43;;;2.23;;
2408;SDS011;8463;48.094;7.970;2023-07-28T10:18:35;2.90;;;2.13;;
2408;SDS011;8463;48.094;7.970;2023-07-28T10:21:15;2.03;;;1.90;;
2408;SDS011;8463;48.094;7.970;2023-07-28T10:23:45;3.00;;;2.00;;
2408;SDS011;8463;48.094;7.970;2023-07-28T10:26:30;2.03;;;1.93;;
2408;SDS011;8463;48.094;7.970;2023-07-28T10:29:13;4.93;;;2.63;;
2408;SDS011;8463;48.094;7.970;2023-07-28T10:31:52;2.60;;;2.40;;
2408;SDS011;8463;48.094;7.970;2023-07-28T10:34:20;2.10;;;1.90;;
2408;SDS011;8463;48.094;7.970;2023-07-28T10:36:49;4.83;;;2.57;;
2408;SDS011;8463;48.094;7.970;2023-07-28T10:39:28;2.97;;;2.17;;
2408;SDS011;8463;48.094;7.970;2023-07-28T10:42:08;2.87;;;1.93;;
2408;SDS011;8463;48.094;7.970;2023-07-28T10:44:34;4.60;;;2.47;;
2408;SDS011;8463;48.094;7.970;2023-07-28T10:47:00;2.67;;;2.47;;
2408;SDS011;8463;48.094;7.970;2023-07-28T10:49:26;4.23;;;2.33;;
2408;SDS011;8463;48.094;7.970;2023-07-28T10:51:56;2.93;;;2.63;;
2408;SDS011;8463;48.094;7.970;2023-07-28T10:54:22;2.80;;;2.50;;
2408;SDS011;8463;48.094;7.970;2023-07-28T10:56:48;2.50;;;2.30;;
2408;SDS011;8463;48.094;7.970;2023-07-28T10:59:14;2.47;;;2.07;;
2408;SDS011;8463;48.094;7.970;2023-07-28T11:01:40;2.80;;;2.27;;
2408;SDS011;8463;48.094;7.970;2023-07-28T11:06:48;2.87;;;2.20;;
2408;SDS011;8463;48.094;7.970;2023-07-28T11:09:22;2.20;;;2.00;;
2408;SDS011;8463;48.094;7.970;2023-07-28T11:11:49;3.67;;;2.60;;
2408;SDS011;8463;48.094;7.970;2023-07-28T11:14:17;3.50;;;2.30;;
2408;SDS011;8463;48.094;7.970;2023-07-28T11:16:50;2.60;;;2.40;;
2408;SDS011;8463;48.094;7.970;2023-07-28T11:19:16;2.83;;;2.33;;
2408;SDS011;8463;48.094;7.970;2023-07-28T11:21:44;2.27;;;2.07;;
2408;SDS011;8463;48.094;7.970;2023-07-28T11:24:19;2.23;;;2.03;;
2408;SDS011;8463;48.094;7.970;2023-07-28T11:26:52;3.10;;;2.20;;
2408;SDS011;8463;48.094;7.970;2023-07-28T11:29:18;3.27;;;2.30;;
2408;SDS011;8463;48.094;7.970;2023-07-28T11:31:47;2.30;;;2.10;;
2408;SDS011;8463;48.094;7.970;2023-07-28T11:34:14;4.20;;;2.80;;
2408;SDS011;8463;48.094;7.970;2023-07-28T11:36:40;2.50;;;2.30;;
2408;SDS011;8463;48.094;7.970;2023-07-28T11:39:15;3.27;;;2.87;;
2408;SDS011;8463;48.094;7.970;2023-07-28T11:41:42;2.23;;;2.03;;
2408;SDS011;8463;48.094;7.970;2023-07-28T11:44:08;3.10;;;2.50;;
2408;SDS011;8463;48.094;7.970;2023-07-28T11:46:41;5.43;;;2.60;;
2408;SDS011;8463;48.094;7.970;2023-07-28T11:49:13;2.83;;;2.63;;
2408;SDS011;8463;48.094;7.970;2023-07-28T11:51:44;3.17;;;2.57;;
2408;SDS011;8463;48.094;7.970;2023-07-28T11:54:12;3.33;;;2.60;;
2408;SDS011;8463;48.094;7.970;2023-07-28T11:56:42;4.53;;;2.90;;
2408;SDS011;8463;48.094;7.970;2023-07-28T11:59:09;3.40;;;3.07;;
2408;SDS011;8463;48.094;7.970;2023-07-28T12:01:50;3.80;;;2.70;;
2408;SDS011;8463;48.094;7.970;2023-07-28T12:04:27;2.90;;;2.70;;
2408;SDS011;8463;48.094;7.970;2023-07-28T12:07:14;3.53;;;3.20;;
2408;SDS011;8463;48.094;7.970;2023-07-28T12:12:14;2.67;;;2.40;;
2408;SDS011;8463;48.094;7.970;2023-07-28T12:14:40;3.80;;;3.30;;
2408;SDS011;8463;48.094;7.970;2023-07-28T12:17:15;3.43;;;2.97;;
2408;SDS011;8463;48.094;7.970;2023-07-28T12:22:40;3.13;;;2.90;;
2408;SDS011;8463;48.094;7.970;2023-07-28T12:25:07;3.50;;;3.20;;
2408;SDS011;8463;48.094;7.970;2023-07-28T12:27:33;3.00;;;2.50;;
2408;SDS011;8463;48.094;7.970;2023-07-28T12:29:59;2.93;;;2.63;;
2408;SDS011;8463;48.094;7.970;2023-07-28T12:32:26;3.30;;;2.70;;
2408;SDS011;8463;48.094;7.970;2023-07-28T12:34:52;3.50;;;3.20;;
2408;SDS011;8463;48.094;7.970;2023-07-28T12:37:18;4.30;;;2.97;;
2408;SDS011;8463;48.094;7.970;2023-07-28T12:39:44;3.60;;;3.30;;
2408;SDS011;8463;48.094;7.970;2023-07-28T12:42:10;3.80;;;3.40;;
2408;SDS011;8463;48.094;7.970;2023-07-28T12:44:37;4.47;;;3.30;;
2408;SDS011;8463;48.094;7.970;2023-07-28T12:47:03;3.57;;;3.27;;
2408;SDS011;8463;48.094;7.970;2023-07-28T12:49:30;3.83;;;3.47;;
2408;SDS011;8463;48.094;7.970;2023-07-28T12:51:57;5.20;;;4.10;;
2408;SDS011;8463;48.094;7.970;2023-07-28T12:54:23;3.90;;;3.50;;
2408;SDS011;8463;48.094;7.970;2023-07-28T12:56:50;4.37;;;3.50;;
2408;SDS011;8463;48.094;7.970;2023-07-28T12:59:16;3.77;;;3.47;;
2408;SDS011;8463;48.094;7.970;2023-07-28T13:01:42;4.93;;;3.80;;
2408;SDS011;8463;48.094;7.970;2023-07-28T13:04:07;4.40;;;4.00;;
2408;SDS011;8463;48.094;7.970;2023-07-28T13:06:33;4.07;;;3.77;;
2408;SDS011;8463;48.094;7.970;2023-07-28T13:09:02;4.40;;;2.70;;
2408;SDS011;8463;48.094;7.970;2023-07-28T13:11:30;4.60;;;3.47;;
2408;SDS011;8463;48.094;7.970;2023-07-28T13:13:55;3.87;;;2.50;;
2408;SDS011;8463;48.094;7.970;2023-07-28T13:16:21;6.00;;;3.70;;
2408;SDS011;8463;48.094;7.970;2023-07-28T13:18:49;3.10;;;2.70;;
2408;SDS011;8463;48.094;7.970;2023-07-28T13:21:15;3.20;;;2.67;;
2408;SDS011;8463;48.094;7.970;2023-07-28T13:23:41;2.90;;;2.50;;
2408;SDS011;8463;48.094;7.970;2023-07-28T13:26:07;3.13;;;2.83;;
2408;SDS011;8463;48.094;7.970;2023-07-28T13:28:33;2.97;;;2.60;;
2408;SDS011;8463;48.094;7.970;2023-07-28T13:31:02;2.73;;;2.53;;
2408;SDS011;8463;48.094;7.970;2023-07-28T13:33:30;2.30;;;2.07;;
2408;SDS011;8463;48.094;7.970;2023-07-28T13:35:56;3.00;;;2.60;;
2408;SDS011;8463;48.094;7.970;2023-07-28T13:38:30;4.00;;;2.33;;
2408;SDS011;8463;48.094;7.970;2023-07-28T13:40:56;3.77;;;2.50;;
2408;SDS011;8463;48.094;7.970;2023-07-28T13:43:22;4.60;;;2.37;;
2408;SDS011;8463;48.094;7.970;2023-07-28T13:45:49;3.20;;;2.00;;
2408;SDS011;8463;48.094;7.970;2023-07-28T13:48:16;2.73;;;2.23;;
2408;SDS011;8463;48.094;7.970;2023-07-28T13:50:42;3.63;;;2.43;;
2408;SDS011;8463;48.094;7.970;2023-07-28T13:53:07;2.40;;;2.20;;
2408;SDS011;8463;48.094;7.970;2023-07-28T13:55:37;2.50;;;2.17;;
2408;SDS011;8463;48.094;7.970;2023-07-28T13:58:03;4.07;;;1.90;;
2408;SDS011;8463;48.094;7.970;2023-07-28T14:00:31;2.30;;;1.53;;
2408;SDS011;8463;48.094;7.970;2023-07-28T14:02:57;1.43;;;1.33;;
2408;SDS011;8463;48.094;7.970;2023-07-28T14:05:23;2.17;;;1.60;;
2408;SDS011;8463;48.094;7.970;2023-07-28T14:07:48;1.67;;;1.43;;
2408;SDS011;8463;48.094;7.970;2023-07-28T14:10:14;1.50;;;1.40;;
2408;SDS011;8463;48.094;7.970;2023-07-28T14:12:39;2.00;;;1.80;;
2408;SDS011;8463;48.094;7.970;2023-07-28T14:15:06;5.03;;;1.73;;
2408;SDS011;8463;48.094;7.970;2023-07-28T14:17:33;2.37;;;1.00;;
2408;SDS011;8463;48.094;7.970;2023-07-28T14:19:59;1.20;;;1.10;;
2408;SDS011;8463;48.094;7.970;2023-07-28T14:22:24;3.77;;;1.33;;
2408;SDS011;8463;48.094;7.970;2023-07-28T14:24:50;1.20;;;1.10;;
2408;SDS011;8463;48.094;7.970;2023-07-28T14:27:15;1.30;;;1.10;;
2408;SDS011;8463;48.094;7.970;2023-07-28T14:29:42;5.40;;;1.30;;
2408;SDS011;8463;48.094;7.970;2023-07-28T14:32:08;2.43;;;1.27;;
2408;SDS011;8463;48.094;7.970;2023-07-28T14:34:34;1.43;;;1.30;;
2408;SDS011;8463;48.094;7.970;2023-07-28T14:37:01;3.97;;;1.60;;
2408;SDS011;8463;48.094;7.970;2023-07-28T14:39:31;1.60;;;1.30;;
2408;SDS011;8463;48.094;7.970;2023-07-28T14:41:56;1.70;;;1.40;;
2408;SDS011;8463;48.094;7.970;2023-07-28T14:44:22;1.47;;;1.37;;
2408;SDS011;8463;48.094;7.970;2023-07-28T14:46:48;1.60;;;1.40;;
2408;SDS011;8463;48.094;7.970;2023-07-28T14:49:13;1.37;;;1.20;;
2408;SDS011;8463;48.094;7.970;2023-07-28T14:51:39;1.83;;;1.27;;
2408;SDS011;8463;48.094;7.970;2023-07-28T14:54:07;1.63;;;1.27;;
2408;SDS011;8463;48.094;7.970;2023-07-28T14:56:33;2.50;;;1.27;;
2408;SDS011;8463;48.094;7.970;2023-07-28T14:58:58;3.50;;;1.10;;
2408;SDS011;8463;48.094;7.970;2023-07-28T15:01:28;1.63;;;1.30;;
2408;SDS011;8463;48.094;7.970;2023-07-28T15:03:54;1.83;;;1.73;;
2408;SDS011;8463;48.094;7.970;2023-07-28T15:06:20;1.40;;;1.30;;
2408;SDS011;8463;48.094;7.970;2023-07-28T15:08:46;1.53;;;1.43;;
2408;SDS011;8463;48.094;7.970;2023-07-28T15:11:12;1.80;;;1.50;;
2408;SDS011;8463;48.094;7.970;2023-07-28T15:13:39;2.87;;;1.77;;
2408;SDS011;8463;48.094;7.970;2023-07-28T15:16:05;2.03;;;1.60;;
2408;SDS011;8463;48.094;7.970;2023-07-28T15:18:31;3.77;;;1.50;;
2408;SDS011;8463;48.094;7.970;2023-07-28T15:20:57;1.87;;;1.73;;
2408;SDS011;8463;48.094;7.970;2023-07-28T15:23:24;1.50;;;1.30;;
2408;SDS011;8463;48.094;7.970;2023-07-28T15:25:51;6.43;;;1.83;;